Aviation Digital Data Service (ADDS)

Output produced by METARs form (0812 UTC 30 August 2014)
found at http://www.aviationweather.gov/adds/metars/
 
KTHV 300753Z AUTO 00000KT 10SM FEW045 16/14 A3022 RMK AO2 SLP233 T01560139
KTHV 300653Z AUTO 00000KT 10SM BKN046 OVC055 18/16 A3023 RMK AO2 SLP236 T01780156
KTHV 300553Z AUTO 00000KT 10SM FEW049 17/15 A3023 RMK AO2 SLP236 T01720150 10206 20150 50004
KTHV 300453Z AUTO VRB03KT 10SM CLR 18/14 A3023 RMK AO2 SLP236 T01780139 402560083
KTHV 300353Z AUTO 19004KT 10SM CLR 18/13 A3022 RMK AO2 SLP234 T01830128
KTHV 300253Z AUTO 18004KT 10SM CLR 18/12 A3022 RMK AO2 SLP233 T01830122 51016
KTHV 300153Z AUTO 00000KT 10SM CLR 16/12 A3020 RMK AO2 SLP228 T01560122
KTHV 300053Z AUTO 13005KT 10SM CLR 18/13 A3019 RMK AO2 SLP225 T01780128
KTHV 292353Z AUTO 00000KT 10SM CLR 21/12 A3017 RMK AO2 SLP218 T02060122 10256 20200 51005
KTHV 292253Z AUTO 20004KT 10SM CLR 23/13 A3017 RMK AO2 SLP216 T02280128
KTHV 292153Z AUTO 24003KT 10SM CLR 24/12 A3016 RMK AO2 SLP215 T02440122
KTHV 292053Z AUTO 00000KT 10SM CLR 25/11 A3016 RMK AO2 SLP212 T02500111 56009
KTHV 291953Z AUTO 22006KT 10SM CLR 25/10 A3016 RMK AO2 SLP213 T02500100
KTHV 291853Z AUTO 00000KT 10SM CLR 24/11 A3018 RMK AO2 SLP219 T02440106
KTHV 291753Z AUTO 00000KT 10SM CLR 24/11 A3018 RMK AO2 SLP221 T02440111 10250 20111 56016
KTHV 291653Z AUTO 01004KT 10SM CLR 24/12 A3020 RMK AO2 SLP225 T02390117
KTHV 291553Z AUTO 36004KT 10SM CLR 22/11 A3021 RMK AO2 SLP231 T02220106
KTHV 291353Z AUTO 00000KT 10SM CLR 18/12 A3022 RMK AO2 SLP234 T01830117
KTHV 291253Z AUTO 00000KT 10SM CLR 15/13 A3021 RMK AO2 SLP233 T01500128
KTHV 291153Z AUTO 00000KT 10SM CLR 11/11 A3021 RMK AO2 SLP231 T01110106 10117 20083 53018
KTHV 291053Z AUTO 00000KT 10SM CLR 09/08 A3019 RMK AO2 SLP225 T00890078
KTHV 290953Z AUTO 00000KT 10SM CLR 09/08 A3016 RMK AO2 SLP216 T00890078
KTHV 290853Z AUTO 27003KT 10SM CLR 09/09 A3015 RMK AO2 SLP211 T00940089 53005
KTHV 290753Z AUTO 00000KT 10SM CLR 10/09 A3014 RMK AO2 SLP205 T01000089
KTHV 290653Z AUTO 00000KT 10SM CLR 11/10 A3013 RMK AO2 SLP205 T01060100
KTHV 290553Z AUTO 00000KT 10SM CLR 12/11 A3014 RMK AO2 SLP205 T01170106 10167 20106 51013
KTHV 290453Z AUTO 00000KT 10SM CLR 11/11 A3013 RMK AO2 SLP205 T01110106 402560111
KTHV 290353Z AUTO 00000KT 10SM CLR 13/12 A3012 RMK AO2 SLP201 T01280117
KTHV 290253Z AUTO 00000KT 10SM FEW060 13/12 A3010 RMK AO2 SLP192 T01280117 52022
KTHV 290153Z AUTO 00000KT 10SM CLR 13/12 A3007 RMK AO2 SLP183 T01330122
KTHV 290053Z AUTO 00000KT 10SM CLR 15/13 A3006 RMK AO2 SLP178 T01500128
KTHV 282353Z AUTO 00000KT 10SM CLR 17/13 A3003 RMK AO2 SLP169 T01670133 10256 20167 53013
KTHV 282253Z AUTO 35008KT 10SM CLR 23/11 A3001 RMK AO2 SLP163 T02280111
KTHV 282153Z AUTO 35006KT 10SM CLR 24/12 A3000 RMK AO2 SLP160 T02440117
KTHV 282053Z AUTO 33006G15KT 10SM CLR 25/12 A2999 RMK AO2 SLP154 T02500117 55000